Time;durP1;ratioP1;P1;durP2;ratioP2;P2;SDS_P1;SDS_P2;PMS_P1;PMS_P2;Temp;Humidity;BMP_temperature;BMP_pressure;BME280_temperature;BME280_humidity;BME280_pressure;Samples;Min_cycle;Max_cycle;Signal;HPM_P1;HPM_P2
2021/06/17 00:04:45;;;;;;;17.57;12.78;;;;;;;21.81;91.68;99376.61;4347380;80;28462;-83
2021/06/17 00:10:49;;;;;;;20.68;12.93;;;;;;;21.51;97.84;99378.70;4336111;80;28547;-83
2021/06/17 00:16:51;;;;;;;17.50;13.05;;;;;;;21.58;97.30;99375.84;4352519;80;28475;-84
2021/06/17 00:22:53;;;;;;;18.80;13.83;;;;;;;21.49;96.80;99372.69;4377380;80;28430;-84
2021/06/17 00:28:54;;;;;;;16.90;13.65;;;;;;;21.53;94.34;99375.10;4393350;80;28496;-84
2021/06/17 00:34:55;;;;;;;20.35;14.50;;;;;;;21.28;98.53;99377.08;4381444;81;28536;-83
2021/06/17 00:40:57;;;;;;;20.37;13.55;;;;;;;21.49;99.83;99379.52;4384756;81;28551;-82
2021/06/17 00:46:58;;;;;;;20.68;13.70;;;;;;;21.56;100.00;99373.14;4374758;81;28457;-81
2021/06/17 00:53:00;;;;;;;18.73;13.53;;;;;;;21.73;96.23;99371.27;4375452;80;28491;-81
2021/06/17 00:59:03;;;;;;;23.12;15.95;;;;;;;21.65;95.26;99374.09;4339769;81;28481;-83
2021/06/17 01:05:08;;;;;;;25.05;16.87;;;;;;;21.76;97.14;99380.81;4360298;81;28453;-82
2021/06/17 01:11:51;;;;;;;25.72;16.65;;;;;;;21.34;100.00;99381.92;4343449;80;28512;-82
2021/06/17 01:18:04;;;;;;;22.05;15.48;;;;;;;21.82;100.00;99381.00;4410752;80;28461;-82
2021/06/17 01:24:34;;;;;;;24.75;17.30;;;;;;;21.84;99.41;99376.83;4387253;78;28491;-81
2021/06/17 01:31:02;;;;;;;18.98;13.53;;;;;;;21.42;100.00;99377.16;4383902;80;28510;-85
2021/06/17 01:37:08;;;;;;;19.12;13.10;;;;;;;21.26;98.86;99377.39;4393948;78;28488;-86
2021/06/17 01:43:10;;;;;;;25.68;17.17;;;;;;;20.91;100.00;99371.27;4388596;78;28507;-84
2021/06/17 01:49:13;;;;;;;23.52;16.05;;;;;;;21.07;100.00;99373.81;4342975;78;28561;-83
2021/06/17 01:55:15;;;;;;;20.60;14.13;;;;;;;21.02;100.00;99380.16;4420050;78;28499;-83
2021/06/17 02:01:18;;;;;;;20.35;14.53;;;;;;;20.78;100.00;99372.77;4369861;80;28459;-83
2021/06/17 02:07:24;;;;;;;21.75;15.83;;;;;;;20.47;100.00;99372.54;4388502;78;28438;-83
2021/06/17 02:13:27;;;;;;;20.75;15.75;;;;;;;20.33;100.00;99365.58;4423628;79;28450;-84
2021/06/17 02:19:32;;;;;;;20.20;14.70;;;;;;;20.10;100.00;99367.72;4427716;79;28460;-83
2021/06/17 02:25:34;;;;;;;21.60;14.55;;;;;;;20.12;100.00;99367.70;4416347;78;28550;-83
2021/06/17 02:31:42;;;;;;;20.10;14.65;;;;;;;19.99;100.00;99371.07;4404703;78;28471;-83
2021/06/17 02:37:46;;;;;;;21.80;16.17;;;;;;;20.02;100.00;99368.59;4439063;79;28469;-83
2021/06/17 02:43:55;;;;;;;22.62;15.65;;;;;;;19.93;100.00;99368.94;4455621;79;28474;-83
2021/06/17 02:49:57;;;;;;;20.92;15.10;;;;;;;19.86;100.00;99370.59;4481871;78;28516;-84
2021/06/17 02:55:59;;;;;;;21.30;14.78;;;;;;;19.98;100.00;99373.54;4418655;78;28433;-83
2021/06/17 03:02:18;;;;;;;24.32;16.70;;;;;;;20.27;100.00;99366.75;4461561;78;28503;-83
2021/06/17 03:08:37;;;;;;;20.80;14.80;;;;;;;20.23;100.00;99372.50;4431911;79;28487;-82
2021/06/17 03:14:40;;;;;;;20.48;14.78;;;;;;;20.17;100.00;99385.95;4441919;79;28515;-82
2021/06/17 03:20:43;;;;;;;24.92;15.98;;;;;;;20.32;100.00;99390.45;4409243;79;28857;-83
2021/06/17 03:26:46;;;;;;;21.77;14.63;;;;;;;20.88;100.00;99391.81;4448136;78;28512;-83
2021/06/17 03:32:50;;;;;;;21.42;14.30;;;;;;;20.90;100.00;99394.23;4435078;78;28437;-82
2021/06/17 03:38:53;;;;;;;22.90;15.03;;;;;;;21.01;100.00;99399.03;4450213;78;28493;-82
2021/06/17 03:44:56;;;;;;;19.75;13.22;;;;;;;21.22;100.00;99396.05;4359250;80;28460;-82
2021/06/17 03:51:00;;;;;;;18.37;12.68;;;;;;;21.41;100.00;99403.72;4360343;80;28443;-82
2021/06/17 03:57:05;;;;;;;16.15;11.73;;;;;;;21.55;100.00;99404.34;4306366;80;28516;-82
2021/06/17 04:03:09;;;;;;;20.45;12.13;;;;;;;22.12;92.84;99406.22;4351943;80;44467;-85
2021/06/17 04:09:11;;;;;;;19.42;12.25;;;;;;;22.59;88.35;99397.23;4332689;81;28458;-83
2021/06/17 04:15:16;;;;;;;30.72;16.12;;;;;;;22.83;88.62;99401.16;4446971;79;28453;-82
2021/06/17 04:21:20;;;;;;;27.48;16.02;;;;;;;22.99;89.52;99396.17;4430552;79;28451;-83
2021/06/17 04:27:23;;;;;;;28.12;18.80;;;;;;;23.20;89.78;99397.91;4442814;79;28505;-83
2021/06/17 04:33:26;;;;;;;31.37;19.35;;;;;;;23.37;90.44;99395.13;4442881;79;28491;-82
2021/06/17 04:39:28;;;;;;;25.52;17.60;;;;;;;23.25;91.00;99398.36;4427773;80;28500;-82
2021/06/17 04:45:31;;;;;;;27.45;17.45;;;;;;;23.60;88.09;99404.77;4427707;79;28455;-82
2021/06/17 04:51:36;;;;;;;26.62;17.25;;;;;;;23.64;87.26;99398.94;4453090;80;28482;-82
2021/06/17 04:57:37;;;;;;;25.85;17.75;;;;;;;23.58;86.17;99401.53;4425804;79;28419;-83
2021/06/17 05:03:39;;;;;;;26.50;17.37;;;;;;;23.66;85.18;99404.34;4440810;79;28463;-82
2021/06/17 05:16:02;;;;;;;28.62;19.05;;;;;;;23.88;84.81;99408.80;4384574;80;28500;-82
2021/06/17 05:22:04;;;;;;;24.35;17.35;;;;;;;23.75;84.77;99417.33;4421886;79;28539;-80
2021/06/17 05:28:06;;;;;;;19.48;14.75;;;;;;;24.65;77.43;99423.34;4429055;78;28468;-81
2021/06/17 05:34:07;;;;;;;25.15;16.25;;;;;;;25.13;74.23;99422.89;4471665;78;28489;-82
2021/06/17 05:40:09;;;;;;;25.15;16.50;;;;;;;25.20;75.08;99419.11;4510601;79;28511;-82
2021/06/17 05:46:10;;;;;;;28.10;15.70;;;;;;;24.64;72.93;99431.92;4469300;79;28425;-81
2021/06/17 05:52:12;;;;;;;26.33;17.12;;;;;;;24.76;74.66;99429.94;4450744;79;28510;-80
2021/06/17 05:58:13;;;;;;;25.70;15.48;;;;;;;24.47;78.33;99430.70;4451508;80;28456;-80
2021/06/17 06:04:14;;;;;;;21.55;15.98;;;;;;;24.00;80.32;99439.25;4451827;80;28538;-80
2021/06/17 06:10:19;;;;;;;15.60;11.97;;;;;;;24.51;77.31;99448.74;4451562;80;28457;-81
2021/06/17 06:16:20;;;;;;;19.30;13.10;;;;;;;24.29;72.30;99466.87;4452953;80;28516;-83
2021/06/17 06:22:21;;;;;;;15.60;12.13;;;;;;;24.34;73.02;99468.69;4453961;79;28447;-83
2021/06/17 06:28:24;;;;;;;16.93;11.25;;;;;;;24.62;72.00;99456.14;4453349;79;28495;-81
2021/06/17 06:34:26;;;;;;;19.15;11.78;;;;;;;25.19;69.40;99461.52;4453456;79;28465;-81
2021/06/17 06:40:28;;;;;;;15.03;10.30;;;;;;;25.27;69.23;99459.91;4453633;80;28497;-82
2021/06/17 06:46:29;;;;;;;20.20;10.88;;;;;;;25.57;67.69;99462.91;4458827;79;28432;-81
2021/06/17 06:52:31;;;;;;;18.85;11.25;;;;;;;25.82;66.55;99468.20;4421522;79;28483;-82
2021/06/17 06:58:32;;;;;;;18.98;11.43;;;;;;;25.19;69.11;99463.68;4456661;79;28447;-82
2021/06/17 07:04:35;;;;;;;15.90;10.85;;;;;;;24.93;66.97;99469.09;4481803;79;28459;-81
2021/06/17 07:10:41;;;;;;;16.23;9.90;;;;;;;25.32;66.96;99469.41;4436301;79;28515;-81
2021/06/17 07:16:42;;;;;;;17.25;9.15;;;;;;;25.70;63.64;99483.97;4355862;81;28437;-87
2021/06/17 07:22:44;;;;;;;15.95;10.80;;;;;;;26.23;62.26;99485.38;4313807;80;28448;-85
2021/06/17 07:28:45;;;;;;;18.05;11.55;;;;;;;25.57;65.62;99474.75;4313433;81;28475;-87
2021/06/17 07:34:47;;;;;;;13.62;9.85;;;;;;;25.60;67.51;99474.09;4346727;81;28449;-85
2021/06/17 07:40:48;;;;;;;17.20;10.40;;;;;;;26.15;66.70;99464.15;4349038;81;28439;-86
2021/06/17 07:46:51;;;;;;;14.65;11.18;;;;;;;26.29;65.42;99470.31;4414511;79;28471;-86
2021/06/17 07:52:52;;;;;;;18.42;12.47;;;;;;;26.41;63.97;99468.83;4330460;80;28466;-84
2021/06/17 07:58:53;;;;;;;15.95;10.35;;;;;;;26.39;63.47;99469.73;4345797;80;28455;-82
2021/06/17 08:04:55;;;;;;;15.10;9.90;;;;;;;26.41;60.11;99471.58;4370034;81;28561;-81
2021/06/17 08:10:57;;;;;;;12.95;9.83;;;;;;;26.63;62.58;99467.81;4406013;79;28506;-80
2021/06/17 08:16:59;;;;;;;15.83;9.75;;;;;;;27.06;61.83;99466.63;4463748;78;28463;-83
2021/06/17 08:23:00;;;;;;;13.13;9.28;;;;;;;27.21;58.68;99469.39;4450553;78;28712;-80
2021/06/17 08:29:03;;;;;;;13.08;9.05;;;;;;;27.14;57.40;99465.77;4366698;80;28507;-80
2021/06/17 08:35:07;;;;;;;14.20;10.30;;;;;;;27.49;56.87;99470.26;4427931;78;28571;-79
2021/06/17 08:41:09;;;;;;;9.65;7.10;;;;;;;27.51;56.93;99472.14;4421805;78;28471;-84
2021/06/17 08:47:10;;;;;;;9.18;5.80;;;;;;;27.76;55.01;99469.55;4444741;78;28626;-83
2021/06/17 08:53:11;;;;;;;7.03;5.17;;;;;;;28.25;49.97;99478.66;4481163;78;28446;-81
2021/06/17 08:59:14;;;;;;;8.03;4.78;;;;;;;28.08;49.88;99474.07;4549768;78;28533;-84
2021/06/17 09:05:16;;;;;;;9.18;5.50;;;;;;;28.05;49.46;99471.99;4497219;78;28510;-81
2021/06/17 09:11:21;;;;;;;7.72;5.00;;;;;;;28.22;50.55;99478.78;4369455;80;28474;-81
2021/06/17 09:17:22;;;;;;;8.28;5.15;;;;;;;28.57;45.95;99485.89;4353025;79;28525;-80
2021/06/17 09:23:42;;;;;;;10.00;5.30;;;;;;;29.07;46.86;99479.08;4334188;82;28434;-81
2021/06/17 09:29:43;;;;;;;7.75;5.37;;;;;;;29.10;47.25;99474.22;4313287;80;28444;-81
2021/06/17 09:35:54;;;;;;;7.15;4.70;;;;;;;28.88;45.34;99467.99;4309076;80;28460;-82
2021/06/17 09:41:57;;;;;;;8.00;4.50;;;;;;;28.44;43.67;99470.42;4336470;82;28442;-81
2021/06/17 09:47:59;;;;;;;5.85;4.12;;;;;;;29.15;43.06;99468.47;4324212;82;28508;-81
2021/06/17 09:54:21;;;;;;;8.08;4.50;;;;;;;29.22;42.61;99464.55;4333587;81;28534;-81
2021/06/17 10:00:22;;;;;;;6.78;4.58;;;;;;;28.89;43.46;99463.28;4324612;80;28452;-82
2021/06/17 10:06:23;;;;;;;6.95;5.28;;;;;;;29.21;42.81;99454.64;4323932;82;28470;-81
2021/06/17 10:12:25;;;;;;;5.08;4.37;;;;;;;29.49;41.69;99453.92;4433360;79;28551;-81
2021/06/17 10:18:28;;;;;;;5.92;4.67;;;;;;;29.62;41.43;99453.33;4350761;80;28483;-82
2021/06/17 10:24:34;;;;;;;7.00;4.78;;;;;;;29.28;41.75;99455.44;4352810;80;28509;-81
2021/06/17 10:30:41;;;;;;;6.83;4.85;;;;;;;29.58;41.26;99439.95;4354506;81;28444;-79
2021/06/17 10:37:05;;;;;;;6.65;4.80;;;;;;;28.99;41.94;99461.44;4308653;81;28472;-80
2021/06/17 10:43:22;;;;;;;6.85;4.97;;;;;;;29.14;40.75;99452.20;4397265;80;28514;-80
2021/06/17 10:49:51;;;;;;;5.87;4.28;;;;;;;29.64;41.50;99433.59;4346831;81;28514;-80
2021/06/17 10:56:07;;;;;;;8.20;4.45;;;;;;;29.52;42.17;99433.60;4401063;78;28526;-81
2021/06/17 11:02:09;;;;;;;6.03;4.80;;;;;;;29.62;41.44;99438.66;4323541;81;28472;-82
2021/06/17 11:08:26;;;;;;;9.00;5.10;;;;;;;29.74;40.78;99435.05;4318753;81;28508;-82
2021/06/17 11:14:29;;;;;;;7.22;4.25;;;;;;;29.56;40.21;99434.53;4328470;80;28472;-86
2021/06/17 11:20:36;;;;;;;6.62;4.47;;;;;;;30.03;39.46;99432.50;4411347;79;28531;-85
2021/06/17 11:26:49;;;;;;;13.18;5.12;;;;;;;30.30;39.46;99432.87;4404369;79;28457;-84
2021/06/17 11:32:53;;;;;;;8.35;4.40;;;;;;;29.84;38.62;99423.47;4410768;79;28535;-84
2021/06/17 11:38:54;;;;;;;6.85;5.33;;;;;;;30.10;38.94;99429.74;4400647;79;28488;-84
2021/06/17 11:45:06;;;;;;;5.60;4.10;;;;;;;29.80;38.28;99425.34;4411748;79;28485;-84
2021/06/17 11:51:10;;;;;;;7.00;4.40;;;;;;;30.28;36.59;99427.45;4392991;79;28444;-86
2021/06/17 11:57:13;;;;;;;9.95;5.10;;;;;;;30.29;38.06;99418.78;4392433;79;28482;-90
2021/06/17 12:03:20;;;;;;;8.98;4.80;;;;;;;30.45;38.61;99420.75;4384871;79;28492;-88
2021/06/17 12:09:24;;;;;;;10.45;5.53;;;;;;;30.74;38.64;99404.30;4385818;79;28441;-88
2021/06/17 12:15:42;;;;;;;7.87;5.62;;;;;;;30.36;40.01;99397.95;4400828;78;28480;-88
2021/06/17 12:21:44;;;;;;;9.75;5.95;;;;;;;30.47;41.66;99391.50;4273016;82;28458;-86
2021/06/17 12:27:47;;;;;;;8.00;5.72;;;;;;;30.15;40.58;99393.45;4297545;81;28482;-87
2021/06/17 12:33:48;;;;;;;12.47;6.50;;;;;;;30.34;40.07;99387.21;4281895;81;28485;-87
2021/06/17 12:39:58;;;;;;;8.65;5.53;;;;;;;29.68;41.41;99398.48;4262630;81;28538;-85
2021/06/17 12:46:06;;;;;;;7.25;5.80;;;;;;;30.81;40.20;99391.16;4285934;81;28521;-87
2021/06/17 12:52:10;;;;;;;6.50;5.47;;;;;;;30.51;40.58;99388.00;4278388;81;28535;-86
2021/06/17 12:58:14;;;;;;;7.50;5.87;;;;;;;30.37;41.04;99391.25;4260788;81;28482;-85
2021/06/17 13:04:17;;;;;;;8.90;5.90;;;;;;;31.21;40.32;99382.95;4290659;81;28457;-89
2021/06/17 13:10:23;;;;;;;8.70;5.55;;;;;;;30.49;41.69;99388.38;4296746;81;28440;-86
2021/06/17 13:16:25;;;;;;;11.18;6.12;;;;;;;30.91;40.60;99377.30;4326478;80;28519;-84
2021/06/17 13:22:27;;;;;;;7.80;5.90;;;;;;;30.63;39.95;99386.55;4409362;79;28436;-83
2021/06/17 13:28:41;;;;;;;8.30;5.47;;;;;;;31.07;39.32;99383.42;4343032;80;28497;-86
2021/06/17 13:34:43;;;;;;;7.58;6.05;;;;;;;30.91;39.78;99378.70;4372488;80;28454;-85
2021/06/17 13:40:45;;;;;;;8.20;5.58;;;;;;;30.80;39.40;99390.95;4338140;80;28460;-85
2021/06/17 13:46:47;;;;;;;8.40;6.15;;;;;;;31.20;40.01;99387.67;4432590;79;28421;-86
2021/06/17 13:52:49;;;;;;;8.53;5.85;;;;;;;31.15;39.00;99390.75;4428541;78;28489;-85
2021/06/17 13:58:50;;;;;;;8.58;6.37;;;;;;;30.90;38.57;99389.58;4428559;78;28453;-85
2021/06/17 14:04:52;;;;;;;8.33;6.12;;;;;;;30.44;38.48;99395.56;4334221;80;28510;-85
2021/06/17 14:10:53;;;;;;;8.03;5.80;;;;;;;30.51;39.59;99394.94;4412858;78;28512;-84
2021/06/17 14:16:55;;;;;;;10.50;6.33;;;;;;;31.21;39.44;99380.95;4446046;78;28542;-93
2021/06/17 14:22:58;;;;;;;6.72;5.85;;;;;;;30.71;38.10;99384.78;4440126;78;28528;-87
2021/06/17 14:29:02;;;;;;;8.23;6.60;;;;;;;30.64;37.75;99376.23;4435491;78;28479;-85
2021/06/17 14:35:07;;;;;;;9.30;6.33;;;;;;;30.13;38.88;99365.27;4375833;80;28873;-87
2021/06/17 14:41:12;;;;;;;8.23;6.15;;;;;;;30.56;37.92;99365.55;4320592;80;42712;-86
2021/06/17 14:47:11;;;;;;;7.05;6.15;;;;;;;30.53;38.52;99372.62;4364332;81;28457;-85
2021/06/17 14:53:13;;;;;;;7.28;5.90;;;;;;;30.33;37.47;99370.35;4443107;79;28478;-88
2021/06/17 14:59:14;;;;;;;11.55;6.50;;;;;;;30.77;37.90;99356.95;4438491;79;28492;-87
2021/06/17 15:05:16;;;;;;;7.78;6.22;;;;;;;30.60;37.09;99356.73;4422246;78;28475;-85
2021/06/17 15:11:17;;;;;;;6.65;5.58;;;;;;;30.40;36.42;99340.60;4382248;80;28864;-86
2021/06/17 15:17:19;;;;;;;8.23;6.50;;;;;;;30.82;36.59;99342.82;4334999;80;28583;-88
2021/06/17 15:23:20;;;;;;;8.63;6.10;;;;;;;30.53;36.47;99340.72;4258515;81;28435;-84
2021/06/17 15:29:22;;;;;;;8.05;5.90;;;;;;;30.59;36.04;99330.16;4315361;81;28463;-83
2021/06/17 15:35:24;;;;;;;10.18;5.83;;;;;;;30.74;36.67;99330.76;4336889;80;28479;-84
2021/06/17 15:41:25;;;;;;;7.60;5.83;;;;;;;30.30;35.14;99334.43;4313414;81;28460;-84
2021/06/17 15:47:27;;;;;;;6.70;5.35;;;;;;;30.08;36.47;99335.05;4345594;81;28458;-83
2021/06/17 15:53:28;;;;;;;8.70;5.00;;;;;;;30.26;35.57;99336.31;4320765;81;28509;-84
2021/06/17 15:59:30;;;;;;;7.47;4.65;;;;;;;30.20;35.70;99328.03;4252819;81;28478;-84
2021/06/17 16:05:31;;;;;;;8.68;4.83;;;;;;;30.06;35.51;99331.23;4287699;81;28552;-80
2021/06/17 16:11:34;;;;;;;6.25;4.83;;;;;;;29.90;36.28;99315.95;4264765;81;28529;-81
2021/06/17 16:17:35;;;;;;;7.45;4.97;;;;;;;30.39;35.53;99318.20;4314754;80;28467;-78
2021/06/17 16:23:38;;;;;;;6.72;4.30;;;;;;;30.13;35.80;99318.95;4346471;80;28454;-79
2021/06/17 16:29:45;;;;;;;5.80;5.03;;;;;;;30.85;34.60;99317.11;4339209;80;28470;-79
2021/06/17 16:35:43;;;;;;;5.28;4.45;;;;;;;30.50;34.56;99330.35;4341261;80;28493;-79
2021/06/17 16:41:45;;;;;;;8.30;4.60;;;;;;;30.80;33.74;99322.14;4332299;80;28497;-80
2021/06/17 16:47:48;;;;;;;5.75;4.72;;;;;;;31.44;33.67;99319.98;4256958;82;28456;-78
2021/06/17 16:53:50;;;;;;;6.75;4.33;;;;;;;31.21;33.54;99326.80;4353878;80;28525;-79
2021/06/17 16:59:51;;;;;;;4.87;4.00;;;;;;;31.32;33.34;99325.69;4365204;80;28492;-78
2021/06/17 17:05:52;;;;;;;4.83;3.87;;;;;;;31.74;32.70;99333.05;4289294;81;28496;-82
2021/06/17 17:11:54;;;;;;;9.23;4.40;;;;;;;31.85;32.81;99341.03;4280263;82;28509;-82
2021/06/17 17:17:55;;;;;;;6.75;4.15;;;;;;;31.91;32.50;99343.70;4391620;80;28482;-82
2021/06/17 17:24:00;;;;;;;7.72;3.60;;;;;;;32.09;32.07;99345.44;4390164;80;28491;-80
2021/06/17 17:30:03;;;;;;;6.28;3.45;;;;;;;32.29;32.04;99349.56;4359324;80;28490;-80
2021/06/17 17:36:06;;;;;;;8.53;4.05;;;;;;;32.36;31.28;99355.25;4354874;80;28494;-81
2021/06/17 17:42:08;;;;;;;5.28;4.17;;;;;;;32.28;31.42;99356.27;4337312;80;28433;-81
2021/06/17 17:48:09;;;;;;;5.03;3.70;;;;;;;32.47;31.10;99359.62;4396795;80;28469;-81
2021/06/17 17:54:11;;;;;;;4.20;3.25;;;;;;;32.87;29.57;99355.25;4362572;80;28452;-82
2021/06/17 18:00:14;;;;;;;4.37;3.30;;;;;;;32.62;29.98;99362.62;4385746;80;28512;-81
2021/06/17 18:06:16;;;;;;;4.00;3.30;;;;;;;32.70;29.81;99364.34;4388775;80;28572;-80
2021/06/17 18:12:18;;;;;;;9.65;3.98;;;;;;;33.00;29.81;99367.80;4356288;80;28640;-81
2021/06/17 18:18:25;;;;;;;11.43;3.75;;;;;;;33.33;29.35;99367.64;4356865;80;28538;-82
2021/06/17 18:24:24;;;;;;;5.83;4.42;;;;;;;33.07;30.33;99382.41;4340701;81;28458;-83
2021/06/17 18:30:25;;;;;;;5.03;3.60;;;;;;;32.02;31.67;99381.45;4355392;81;28503;-82
2021/06/17 18:36:27;;;;;;;8.13;4.37;;;;;;;31.12;33.23;99388.11;4386386;81;28484;-83
2021/06/17 18:42:28;;;;;;;6.00;3.95;;;;;;;30.02;34.87;99392.68;4368353;80;28610;-86
2021/06/17 18:48:32;;;;;;;6.67;3.77;;;;;;;29.97;35.23;99398.47;4350086;80;28478;-81
2021/06/17 18:54:44;;;;;;;9.90;4.37;;;;;;;29.58;35.97;99399.80;4331704;80;28489;-81
2021/06/17 19:00:41;;;;;;;8.10;4.40;;;;;;;29.22;37.00;99409.19;4344768;80;28492;-82
2021/06/17 19:06:43;;;;;;;8.63;4.15;;;;;;;28.80;37.76;99417.13;4371460;80;28454;-82
2021/06/17 19:12:44;;;;;;;8.60;4.28;;;;;;;28.66;38.28;99421.61;4348003;81;28506;-84
2021/06/17 19:18:46;;;;;;;6.87;4.65;;;;;;;28.46;38.75;99434.38;4377065;81;28534;-90
2021/06/17 19:24:51;;;;;;;6.62;4.08;;;;;;;28.09;39.89;99430.91;4403876;78;28477;-92
2021/06/17 19:30:52;;;;;;;8.93;5.10;;;;;;;28.08;39.78;99438.97;4361473;80;28441;-89
2021/06/17 19:36:54;;;;;;;5.53;4.62;;;;;;;27.79;40.50;99445.38;4345922;80;28461;-91
2021/06/17 19:42:55;;;;;;;6.37;4.42;;;;;;;27.62;41.41;99438.05;4334519;80;28701;-84
2021/06/17 19:48:58;;;;;;;8.10;5.28;;;;;;;27.51;41.97;99443.14;4356332;80;28431;-87
2021/06/17 19:55:00;;;;;;;6.75;4.22;;;;;;;27.35;42.19;99441.55;4331501;80;28475;-89
2021/06/17 20:01:02;;;;;;;6.65;4.87;;;;;;;27.14;43.32;99442.32;4304983;80;28482;-86
2021/06/17 20:07:07;;;;;;;6.20;4.22;;;;;;;26.83;43.64;99433.76;4371123;80;28452;-86
2021/06/17 20:13:09;;;;;;;7.47;4.10;;;;;;;26.74;44.01;99429.64;4367552;80;28460;-87
2021/06/17 20:19:11;;;;;;;6.78;4.20;;;;;;;26.51;44.95;99429.09;4388049;80;28523;-86
2021/06/17 20:25:13;;;;;;;6.60;4.67;;;;;;;26.55;45.20;99429.48;4373603;80;28449;-87
2021/06/17 20:31:15;;;;;;;5.70;4.17;;;;;;;26.30;46.06;99431.17;4385857;80;28638;-87
2021/06/17 20:37:17;;;;;;;7.72;4.47;;;;;;;26.31;45.46;99435.55;4391085;80;28496;-81
2021/06/17 20:43:18;;;;;;;5.55;4.53;;;;;;;26.11;46.42;99430.10;4447644;78;28453;-86
2021/06/17 20:49:20;;;;;;;7.50;4.75;;;;;;;26.11;46.37;99435.06;4335295;81;28558;-83
2021/06/17 20:55:21;;;;;;;8.03;5.80;;;;;;;25.63;48.55;99435.48;4376579;80;28515;-85
2021/06/17 21:01:23;;;;;;;8.90;5.70;;;;;;;25.21;51.39;99435.86;4428673;78;28447;-86
2021/06/17 21:07:25;;;;;;;9.13;6.60;;;;;;;25.33;51.48;99434.66;4433904;78;28485;-83
2021/06/17 21:13:26;;;;;;;12.07;6.92;;;;;;;24.97;54.39;99432.97;4319822;80;28462;-84
2021/06/17 21:19:28;;;;;;;11.93;6.95;;;;;;;24.80;55.00;99438.39;4350401;81;28488;-87
2021/06/17 21:25:29;;;;;;;10.03;6.22;;;;;;;24.90;55.07;99432.61;4355502;81;28482;-87
2021/06/17 21:31:31;;;;;;;12.90;6.37;;;;;;;24.89;55.36;99440.06;4360196;80;28507;-87
2021/06/17 21:37:32;;;;;;;11.83;7.03;;;;;;;24.68;57.38;99438.39;4382869;79;28465;-86
2021/06/17 21:43:35;;;;;;;11.80;7.55;;;;;;;24.35;58.22;99434.01;4392439;80;28534;-84
2021/06/17 21:49:36;;;;;;;10.18;7.05;;;;;;;23.97;60.29;99439.05;4481452;78;28461;-85
2021/06/17 21:55:38;;;;;;;12.63;6.92;;;;;;;23.92;61.13;99450.97;4349038;80;28528;-85
2021/06/17 22:01:40;;;;;;;10.78;7.00;;;;;;;24.26;57.62;99428.23;4383741;80;28450;-82
2021/06/17 22:07:42;;;;;;;11.80;7.65;;;;;;;24.15;59.55;99427.66;4385611;80;28536;-82
2021/06/17 22:13:43;;;;;;;13.50;8.25;;;;;;;23.91;60.95;99437.82;4394071;79;28457;-82
2021/06/17 22:19:45;;;;;;;13.35;8.23;;;;;;;23.94;60.92;99440.48;4385294;79;28462;-81
2021/06/17 22:25:46;;;;;;;13.13;8.18;;;;;;;23.57;62.34;99435.59;4352917;80;28565;-82
2021/06/17 22:31:48;;;;;;;14.70;8.73;;;;;;;23.28;64.40;99427.97;4354054;81;28494;-82
2021/06/17 22:37:49;;;;;;;12.70;8.45;;;;;;;23.06;66.87;99433.57;4364848;80;28532;-82
2021/06/17 22:43:50;;;;;;;13.22;8.93;;;;;;;23.37;63.84;99424.73;4317397;81;28505;-82
2021/06/17 22:49:52;;;;;;;12.35;8.85;;;;;;;23.26;64.11;99432.90;4350858;80;28450;-84
2021/06/17 22:55:54;;;;;;;13.48;9.08;;;;;;;23.10;65.71;99442.83;4342951;82;28464;-84
2021/06/17 23:01:55;;;;;;;11.40;9.23;;;;;;;22.98;67.41;99442.53;4363937;80;28460;-84
2021/06/17 23:07:56;;;;;;;11.57;8.63;;;;;;;22.91;66.64;99436.09;4422832;79;28476;-85
2021/06/17 23:13:58;;;;;;;12.18;8.43;;;;;;;22.74;68.46;99432.55;4416985;79;28486;-85
2021/06/17 23:20:00;;;;;;;9.70;7.47;;;;;;;22.53;71.23;99430.76;4380127;80;28593;-87
2021/06/17 23:26:01;;;;;;;11.40;8.28;;;;;;;22.91;67.88;99426.49;4336539;80;28490;-86
2021/06/17 23:32:03;;;;;;;9.80;7.50;;;;;;;22.51;71.70;99424.78;4325221;80;28565;-86
2021/06/17 23:38:07;;;;;;;11.22;8.80;;;;;;;22.55;71.85;99434.83;4334682;80;28482;-86
2021/06/17 23:44:09;;;;;;;11.12;8.43;;;;;;;22.20;75.03;99441.70;4241668;82;28445;-86
2021/06/17 23:50:12;;;;;;;12.93;8.70;;;;;;;21.98;76.69;99429.47;4356052;81;28486;-86
2021/06/17 23:56:13;;;;;;;12.85;9.03;;;;;;;21.98;76.99;99426.73;4339644;81;28535;-84
